sensor_id;sensor_type;location;lat;lon;timestamp;temperature;humidity
2409;DHT22;8463;48.094;7.970;2024-01-07T00:00:02;5.80;1.00
2409;DHT22;8463;48.094;7.970;2024-01-07T00:02:28;5.80;1.00
2409;DHT22;8463;48.094;7.970;2024-01-07T00:04:56;5.80;1.00
2409;DHT22;8463;48.094;7.970;2024-01-07T00:07:21;5.80;1.00
2409;DHT22;8463;48.094;7.970;2024-01-07T00:09:47;5.80;1.00
2409;DHT22;8463;48.094;7.970;2024-01-07T00:12:12;5.80;1.00
2409;DHT22;8463;48.094;7.970;2024-01-07T00:14:38;5.80;1.00
2409;DHT22;8463;48.094;7.970;2024-01-07T00:17:04;5.80;1.00
2409;DHT22;8463;48.094;7.970;2024-01-07T00:19:29;5.70;1.00
2409;DHT22;8463;48.094;7.970;2024-01-07T00:21:57;5.70;1.00
2409;DHT22;8463;48.094;7.970;2024-01-07T00:24:25;5.60;1.00
2409;DHT22;8463;48.094;7.970;2024-01-07T00:26:53;5.60;1.00
2409;DHT22;8463;48.094;7.970;2024-01-07T00:29:19;5.50;1.00
2409;DHT22;8463;48.094;7.970;2024-01-07T00:31:44;5.60;1.00
2409;DHT22;8463;48.094;7.970;2024-01-07T00:34:12;5.60;1.00
2409;DHT22;8463;48.094;7.970;2024-01-07T00:36:38;5.60;1.00
2409;DHT22;8463;48.094;7.970;2024-01-07T00:39:03;5.60;1.00
2409;DHT22;8463;48.094;7.970;2024-01-07T00:41:29;5.60;1.00
2409;DHT22;8463;48.094;7.970;2024-01-07T00:43:57;5.60;1.00
2409;DHT22;8463;48.094;7.970;2024-01-07T00:46:23;5.60;1.00
2409;DHT22;8463;48.094;7.970;2024-01-07T00:48:49;5.50;1.00
2409;DHT22;8463;48.094;7.970;2024-01-07T00:51:14;5.60;1.00
2409;DHT22;8463;48.094;7.970;2024-01-07T00:53:40;5.60;1.00
2409;DHT22;8463;48.094;7.970;2024-01-07T00:56:06;5.60;1.00
2409;DHT22;8463;48.094;7.970;2024-01-07T00:58:32;5.60;1.00
2409;DHT22;8463;48.094;7.970;2024-01-07T01:00:58;5.60;1.00
2409;DHT22;8463;48.094;7.970;2024-01-07T01:03:26;5.70;1.00
2409;DHT22;8463;48.094;7.970;2024-01-07T01:05:52;5.70;1.00
2409;DHT22;8463;48.094;7.970;2024-01-07T01:08:17;5.70;1.00
2409;DHT22;8463;48.094;7.970;2024-01-07T01:10:43;5.70;1.00
2409;DHT22;8463;48.094;7.970;2024-01-07T01:13:09;5.70;1.00
2409;DHT22;8463;48.094;7.970;2024-01-07T01:15:35;5.70;1.00
2409;DHT22;8463;48.094;7.970;2024-01-07T01:18:00;5.70;1.00
2409;DHT22;8463;48.094;7.970;2024-01-07T01:20:26;5.70;1.00
2409;DHT22;8463;48.094;7.970;2024-01-07T01:22:52;5.70;1.00
2409;DHT22;8463;48.094;7.970;2024-01-07T01:25:17;5.70;1.00
2409;DHT22;8463;48.094;7.970;2024-01-07T01:27:46;5.70;1.00
2409;DHT22;8463;48.094;7.970;2024-01-07T01:30:11;5.70;1.00
2409;DHT22;8463;48.094;7.970;2024-01-07T01:32:38;5.60;1.00
2409;DHT22;8463;48.094;7.970;2024-01-07T01:35:05;5.60;1.00
2409;DHT22;8463;48.094;7.970;2024-01-07T01:37:30;5.50;1.00
2409;DHT22;8463;48.094;7.970;2024-01-07T01:39:58;5.60;1.00
2409;DHT22;8463;48.094;7.970;2024-01-07T01:42:24;5.60;1.00
2409;DHT22;8463;48.094;7.970;2024-01-07T01:44:50;5.60;1.00
2409;DHT22;8463;48.094;7.970;2024-01-07T01:47:16;5.60;1.00
2409;DHT22;8463;48.094;7.970;2024-01-07T01:49:41;5.70;1.00
2409;DHT22;8463;48.094;7.970;2024-01-07T01:52:08;5.70;1.00
2409;DHT22;8463;48.094;7.970;2024-01-07T01:54:34;5.70;1.00
2409;DHT22;8463;48.094;7.970;2024-01-07T01:57:00;5.70;1.00
2409;DHT22;8463;48.094;7.970;2024-01-07T01:59:26;5.70;1.00
2409;DHT22;8463;48.094;7.970;2024-01-07T02:01:53;5.70;1.00
2409;DHT22;8463;48.094;7.970;2024-01-07T02:04:20;5.70;1.00
2409;DHT22;8463;48.094;7.970;2024-01-07T02:06:46;5.70;1.00
2409;DHT22;8463;48.094;7.970;2024-01-07T02:09:12;5.70;1.00
2409;DHT22;8463;48.094;7.970;2024-01-07T02:11:37;5.70;1.00
2409;DHT22;8463;48.094;7.970;2024-01-07T02:14:03;5.70;1.00
2409;DHT22;8463;48.094;7.970;2024-01-07T02:16:31;5.70;1.00
2409;DHT22;8463;48.094;7.970;2024-01-07T02:18:58;5.70;1.00
2409;DHT22;8463;48.094;7.970;2024-01-07T02:21:23;5.70;1.00
2409;DHT22;8463;48.094;7.970;2024-01-07T02:23:51;5.70;1.00
2409;DHT22;8463;48.094;7.970;2024-01-07T02:26:17;5.70;1.00
2409;DHT22;8463;48.094;7.970;2024-01-07T02:28:42;5.70;1.00
2409;DHT22;8463;48.094;7.970;2024-01-07T02:31:08;5.70;1.00
2409;DHT22;8463;48.094;7.970;2024-01-07T02:33:34;5.70;1.00
2409;DHT22;8463;48.094;7.970;2024-01-07T02:35:59;5.60;1.00
2409;DHT22;8463;48.094;7.970;2024-01-07T02:38:25;5.60;1.00
2409;DHT22;8463;48.094;7.970;2024-01-07T02:40:50;5.50;1.00
2409;DHT22;8463;48.094;7.970;2024-01-07T02:43:16;5.50;1.00
2409;DHT22;8463;48.094;7.970;2024-01-07T02:45:42;5.50;1.00
2409;DHT22;8463;48.094;7.970;2024-01-07T02:48:07;5.50;1.00
2409;DHT22;8463;48.094;7.970;2024-01-07T02:50:33;5.40;1.00
2409;DHT22;8463;48.094;7.970;2024-01-07T02:52:58;5.40;1.00
2409;DHT22;8463;48.094;7.970;2024-01-07T02:55:24;5.40;1.00
2409;DHT22;8463;48.094;7.970;2024-01-07T02:57:50;5.40;1.00
2409;DHT22;8463;48.094;7.970;2024-01-07T03:00:15;5.40;1.00
2409;DHT22;8463;48.094;7.970;2024-01-07T03:02:41;5.40;1.00
2409;DHT22;8463;48.094;7.970;2024-01-07T03:05:07;5.40;1.00
2409;DHT22;8463;48.094;7.970;2024-01-07T03:07:33;5.50;1.00
2409;DHT22;8463;48.094;7.970;2024-01-07T03:09:58;5.50;1.00
2409;DHT22;8463;48.094;7.970;2024-01-07T03:12:24;5.50;1.00
2409;DHT22;8463;48.094;7.970;2024-01-07T03:14:50;5.40;1.00
2409;DHT22;8463;48.094;7.970;2024-01-07T03:17:15;5.30;1.00
2409;DHT22;8463;48.094;7.970;2024-01-07T03:19:42;5.40;1.00
2409;DHT22;8463;48.094;7.970;2024-01-07T03:22:08;5.30;1.00
2409;DHT22;8463;48.094;7.970;2024-01-07T03:24:34;5.30;1.00
2409;DHT22;8463;48.094;7.970;2024-01-07T03:27:00;5.30;1.00
2409;DHT22;8463;48.094;7.970;2024-01-07T03:29:25;5.40;1.00
2409;DHT22;8463;48.094;7.970;2024-01-07T03:31:51;5.30;1.00
2409;DHT22;8463;48.094;7.970;2024-01-07T03:34:18;5.30;1.00
2409;DHT22;8463;48.094;7.970;2024-01-07T03:36:44;5.20;1.00
2409;DHT22;8463;48.094;7.970;2024-01-07T03:39:10;5.10;1.00
2409;DHT22;8463;48.094;7.970;2024-01-07T03:41:35;5.10;1.00
2409;DHT22;8463;48.094;7.970;2024-01-07T03:44:01;5.10;1.00
2409;DHT22;8463;48.094;7.970;2024-01-07T03:46:26;5.00;1.00
2409;DHT22;8463;48.094;7.970;2024-01-07T03:48:52;5.00;1.00
2409;DHT22;8463;48.094;7.970;2024-01-07T03:51:18;5.10;1.00
2409;DHT22;8463;48.094;7.970;2024-01-07T03:53:43;5.20;1.00
2409;DHT22;8463;48.094;7.970;2024-01-07T03:56:09;5.10;1.00
2409;DHT22;8463;48.094;7.970;2024-01-07T03:58:34;5.20;1.00
2409;DHT22;8463;48.094;7.970;2024-01-07T04:01:00;5.00;1.00
2409;DHT22;8463;48.094;7.970;2024-01-07T04:03:26;5.00;1.00
2409;DHT22;8463;48.094;7.970;2024-01-07T04:05:52;5.00;1.00
2409;DHT22;8463;48.094;7.970;2024-01-07T04:08:17;5.10;1.00
2409;DHT22;8463;48.094;7.970;2024-01-07T04:10:43;5.20;1.00
2409;DHT22;8463;48.094;7.970;2024-01-07T04:13:09;5.20;1.00
2409;DHT22;8463;48.094;7.970;2024-01-07T04:15:35;5.20;1.00
2409;DHT22;8463;48.094;7.970;2024-01-07T04:18:04;5.20;1.00
2409;DHT22;8463;48.094;7.970;2024-01-07T04:20:30;5.20;1.00
2409;DHT22;8463;48.094;7.970;2024-01-07T04:22:57;5.20;1.00
2409;DHT22;8463;48.094;7.970;2024-01-07T04:25:23;5.20;1.00
2409;DHT22;8463;48.094;7.970;2024-01-07T04:27:49;5.20;1.00
2409;DHT22;8463;48.094;7.970;2024-01-07T04:30:15;5.20;1.00
2409;DHT22;8463;48.094;7.970;2024-01-07T04:32:40;5.20;1.00
2409;DHT22;8463;48.094;7.970;2024-01-07T04:35:06;5.30;1.00
2409;DHT22;8463;48.094;7.970;2024-01-07T04:37:33;5.30;1.00
2409;DHT22;8463;48.094;7.970;2024-01-07T04:39:58;5.40;1.00
2409;DHT22;8463;48.094;7.970;2024-01-07T04:42:24;5.40;1.00
2409;DHT22;8463;48.094;7.970;2024-01-07T04:44:50;5.40;1.00
2409;DHT22;8463;48.094;7.970;2024-01-07T04:47:32;5.30;1.00
2409;DHT22;8463;48.094;7.970;2024-01-07T04:49:59;5.40;1.00
2409;DHT22;8463;48.094;7.970;2024-01-07T04:52:25;5.30;1.00
2409;DHT22;8463;48.094;7.970;2024-01-07T04:54:52;5.30;1.00
2409;DHT22;8463;48.094;7.970;2024-01-07T04:57:18;5.20;1.00
2409;DHT22;8463;48.094;7.970;2024-01-07T04:59:44;5.20;1.00
2409;DHT22;8463;48.094;7.970;2024-01-07T05:02:10;5.20;1.00
2409;DHT22;8463;48.094;7.970;2024-01-07T05:04:36;5.10;1.00
2409;DHT22;8463;48.094;7.970;2024-01-07T05:07:02;5.10;1.00
2409;DHT22;8463;48.094;7.970;2024-01-07T05:09:27;5.10;1.00
2409;DHT22;8463;48.094;7.970;2024-01-07T05:11:53;5.10;1.00
2409;DHT22;8463;48.094;7.970;2024-01-07T05:14:18;5.20;1.00
2409;DHT22;8463;48.094;7.970;2024-01-07T05:16:44;5.20;1.00
2409;DHT22;8463;48.094;7.970;2024-01-07T05:19:10;5.20;1.00
2409;DHT22;8463;48.094;7.970;2024-01-07T05:21:35;5.30;1.00
2409;DHT22;8463;48.094;7.970;2024-01-07T05:24:01;5.30;1.00
2409;DHT22;8463;48.094;7.970;2024-01-07T05:26:27;5.30;1.00
2409;DHT22;8463;48.094;7.970;2024-01-07T05:28:52;5.20;1.00
2409;DHT22;8463;48.094;7.970;2024-01-07T05:31:18;5.30;1.00
2409;DHT22;8463;48.094;7.970;2024-01-07T05:33:44;5.30;1.00
2409;DHT22;8463;48.094;7.970;2024-01-07T05:36:12;5.40;1.00
2409;DHT22;8463;48.094;7.970;2024-01-07T05:38:37;5.30;1.00
2409;DHT22;8463;48.094;7.970;2024-01-07T05:41:04;5.40;1.00
2409;DHT22;8463;48.094;7.970;2024-01-07T05:43:30;5.40;1.00
2409;DHT22;8463;48.094;7.970;2024-01-07T05:45:55;5.40;1.00
2409;DHT22;8463;48.094;7.970;2024-01-07T05:48:22;5.40;1.00
2409;DHT22;8463;48.094;7.970;2024-01-07T05:50:48;5.30;1.00
2409;DHT22;8463;48.094;7.970;2024-01-07T05:53:13;5.30;1.00
2409;DHT22;8463;48.094;7.970;2024-01-07T05:55:39;5.30;1.00
2409;DHT22;8463;48.094;7.970;2024-01-07T05:58:05;5.30;1.00
2409;DHT22;8463;48.094;7.970;2024-01-07T06:00:30;5.20;1.00
2409;DHT22;8463;48.094;7.970;2024-01-07T06:02:56;5.20;1.00
2409;DHT22;8463;48.094;7.970;2024-01-07T06:05:22;5.20;1.00
2409;DHT22;8463;48.094;7.970;2024-01-07T06:07:48;5.20;1.00
2409;DHT22;8463;48.094;7.970;2024-01-07T06:10:14;5.20;1.00
2409;DHT22;8463;48.094;7.970;2024-01-07T06:12:42;5.20;1.00
2409;DHT22;8463;48.094;7.970;2024-01-07T06:15:08;5.20;1.00
2409;DHT22;8463;48.094;7.970;2024-01-07T06:17:36;5.20;1.00
2409;DHT22;8463;48.094;7.970;2024-01-07T06:20:01;5.20;1.00
2409;DHT22;8463;48.094;7.970;2024-01-07T06:22:28;5.20;1.00
2409;DHT22;8463;48.094;7.970;2024-01-07T06:24:55;5.20;1.00
2409;DHT22;8463;48.094;7.970;2024-01-07T06:27:21;5.20;1.00
2409;DHT22;8463;48.094;7.970;2024-01-07T06:29:47;5.20;1.00
2409;DHT22;8463;48.094;7.970;2024-01-07T06:32:13;5.20;1.00
2409;DHT22;8463;48.094;7.970;2024-01-07T06:34:39;5.20;1.00
2409;DHT22;8463;48.094;7.970;2024-01-07T06:37:04;5.20;1.00
2409;DHT22;8463;48.094;7.970;2024-01-07T06:39:31;5.10;1.00
2409;DHT22;8463;48.094;7.970;2024-01-07T06:41:57;5.10;1.00
2409;DHT22;8463;48.094;7.970;2024-01-07T06:44:23;5.20;1.00
2409;DHT22;8463;48.094;7.970;2024-01-07T06:46:48;5.10;1.00
2409;DHT22;8463;48.094;7.970;2024-01-07T06:49:14;5.20;1.00
2409;DHT22;8463;48.094;7.970;2024-01-07T06:51:39;5.20;1.00
2409;DHT22;8463;48.094;7.970;2024-01-07T06:54:05;5.20;1.00
2409;DHT22;8463;48.094;7.970;2024-01-07T06:56:31;5.20;1.00
2409;DHT22;8463;48.094;7.970;2024-01-07T06:58:56;5.20;1.00
2409;DHT22;8463;48.094;7.970;2024-01-07T07:01:22;5.20;1.00
2409;DHT22;8463;48.094;7.970;2024-01-07T07:03:50;5.20;1.00
2409;DHT22;8463;48.094;7.970;2024-01-07T07:06:16;5.30;1.00
2409;DHT22;8463;48.094;7.970;2024-01-07T07:08:42;5.30;1.00
2409;DHT22;8463;48.094;7.970;2024-01-07T07:11:08;5.30;1.00
2409;DHT22;8463;48.094;7.970;2024-01-07T07:13:34;5.30;1.00
2409;DHT22;8463;48.094;7.970;2024-01-07T07:16:00;5.30;1.00
2409;DHT22;8463;48.094;7.970;2024-01-07T07:18:26;5.30;1.00
2409;DHT22;8463;48.094;7.970;2024-01-07T07:20:52;6.10;1.00
2409;DHT22;8463;48.094;7.970;2024-01-07T07:23:17;7.00;1.00
2409;DHT22;8463;48.094;7.970;2024-01-07T07:25:43;7.30;1.00
2409;DHT22;8463;48.094;7.970;2024-01-07T07:28:09;6.80;1.00
2409;DHT22;8463;48.094;7.970;2024-01-07T07:30:37;6.50;1.00
2409;DHT22;8463;48.094;7.970;2024-01-07T07:33:03;6.20;1.00
2409;DHT22;8463;48.094;7.970;2024-01-07T07:35:28;5.90;1.00
2409;DHT22;8463;48.094;7.970;2024-01-07T07:37:54;5.80;1.00
2409;DHT22;8463;48.094;7.970;2024-01-07T07:40:20;5.70;1.00
2409;DHT22;8463;48.094;7.970;2024-01-07T07:42:46;5.60;1.00
2409;DHT22;8463;48.094;7.970;2024-01-07T07:45:16;5.50;1.00
2409;DHT22;8463;48.094;7.970;2024-01-07T07:47:42;5.50;1.00
2409;DHT22;8463;48.094;7.970;2024-01-07T07:50:10;5.40;1.00
2409;DHT22;8463;48.094;7.970;2024-01-07T07:52:39;5.30;1.00
2409;DHT22;8463;48.094;7.970;2024-01-07T07:55:04;5.30;1.00
2409;DHT22;8463;48.094;7.970;2024-01-07T07:57:32;5.20;1.00
2409;DHT22;8463;48.094;7.970;2024-01-07T07:59:58;5.30;1.00
2409;DHT22;8463;48.094;7.970;2024-01-07T08:02:23;5.30;1.00
2409;DHT22;8463;48.094;7.970;2024-01-07T08:04:51;5.30;1.00
2409;DHT22;8463;48.094;7.970;2024-01-07T08:07:17;5.30;1.00
2409;DHT22;8463;48.094;7.970;2024-01-07T08:09:43;5.30;1.00
2409;DHT22;8463;48.094;7.970;2024-01-07T08:12:09;5.30;1.00
2409;DHT22;8463;48.094;7.970;2024-01-07T08:14:37;5.30;1.00
2409;DHT22;8463;48.094;7.970;2024-01-07T08:17:07;5.30;1.00
2409;DHT22;8463;48.094;7.970;2024-01-07T08:19:32;5.40;1.00
2409;DHT22;8463;48.094;7.970;2024-01-07T08:21:58;5.40;1.00
2409;DHT22;8463;48.094;7.970;2024-01-07T08:24:24;5.40;1.00
2409;DHT22;8463;48.094;7.970;2024-01-07T08:26:49;5.40;1.00
2409;DHT22;8463;48.094;7.970;2024-01-07T08:29:15;5.50;1.00
2409;DHT22;8463;48.094;7.970;2024-01-07T08:31:43;5.50;1.00
2409;DHT22;8463;48.094;7.970;2024-01-07T08:34:08;5.50;1.00
2409;DHT22;8463;48.094;7.970;2024-01-07T08:36:34;5.50;1.00
2409;DHT22;8463;48.094;7.970;2024-01-07T08:39:00;5.50;1.00
2409;DHT22;8463;48.094;7.970;2024-01-07T08:41:26;5.50;1.00
2409;DHT22;8463;48.094;7.970;2024-01-07T08:43:52;5.50;1.00
2409;DHT22;8463;48.094;7.970;2024-01-07T08:46:20;5.50;1.00
2409;DHT22;8463;48.094;7.970;2024-01-07T08:48:46;5.50;1.00
2409;DHT22;8463;48.094;7.970;2024-01-07T08:51:13;5.50;1.00
2409;DHT22;8463;48.094;7.970;2024-01-07T08:53:39;5.50;1.00
2409;DHT22;8463;48.094;7.970;2024-01-07T08:56:05;5.50;1.00
2409;DHT22;8463;48.094;7.970;2024-01-07T08:58:32;5.50;1.00
2409;DHT22;8463;48.094;7.970;2024-01-07T09:00:58;5.60;1.00
2409;DHT22;8463;48.094;7.970;2024-01-07T09:03:23;5.70;1.00
2409;DHT22;8463;48.094;7.970;2024-01-07T09:05:49;5.60;1.00
2409;DHT22;8463;48.094;7.970;2024-01-07T09:08:15;5.60;1.00
2409;DHT22;8463;48.094;7.970;2024-01-07T09:10:43;5.50;1.00
2409;DHT22;8463;48.094;7.970;2024-01-07T09:13:11;5.50;1.00
2409;DHT22;8463;48.094;7.970;2024-01-07T09:15:37;5.50;1.00
2409;DHT22;8463;48.094;7.970;2024-01-07T09:18:02;6.60;1.00
2409;DHT22;8463;48.094;7.970;2024-01-07T09:20:29;5.50;1.00
2409;DHT22;8463;48.094;7.970;2024-01-07T09:22:55;5.50;1.00
2409;DHT22;8463;48.094;7.970;2024-01-07T09:25:21;5.50;1.00
2409;DHT22;8463;48.094;7.970;2024-01-07T09:27:46;5.50;1.00
2409;DHT22;8463;48.094;7.970;2024-01-07T09:30:12;5.50;1.00
2409;DHT22;8463;48.094;7.970;2024-01-07T09:32:40;5.50;1.00
2409;DHT22;8463;48.094;7.970;2024-01-07T09:35:06;5.50;1.00
2409;DHT22;8463;48.094;7.970;2024-01-07T09:37:32;5.50;1.00
2409;DHT22;8463;48.094;7.970;2024-01-07T09:39:58;5.50;1.00
2409;DHT22;8463;48.094;7.970;2024-01-07T09:42:24;5.50;1.00
2409;DHT22;8463;48.094;7.970;2024-01-07T09:44:50;5.50;1.00
2409;DHT22;8463;48.094;7.970;2024-01-07T09:47:16;5.50;1.00
2409;DHT22;8463;48.094;7.970;2024-01-07T09:49:43;5.50;1.00
2409;DHT22;8463;48.094;7.970;2024-01-07T09:52:10;5.50;1.00
2409;DHT22;8463;48.094;7.970;2024-01-07T09:54:39;5.50;1.00
2409;DHT22;8463;48.094;7.970;2024-01-07T09:57:06;5.50;1.00
2409;DHT22;8463;48.094;7.970;2024-01-07T09:59:36;5.50;1.00
2409;DHT22;8463;48.094;7.970;2024-01-07T10:02:04;5.60;1.00
2409;DHT22;8463;48.094;7.970;2024-01-07T10:04:30;5.60;1.00
2409;DHT22;8463;48.094;7.970;2024-01-07T10:06:57;5.60;1.00
2409;DHT22;8463;48.094;7.970;2024-01-07T10:09:44;5.60;1.00
2409;DHT22;8463;48.094;7.970;2024-01-07T10:12:09;5.70;1.00
2409;DHT22;8463;48.094;7.970;2024-01-07T10:14:35;5.70;1.00
2409;DHT22;8463;48.094;7.970;2024-01-07T10:17:01;5.70;1.00
2409;DHT22;8463;48.094;7.970;2024-01-07T10:19:26;5.70;1.00
2409;DHT22;8463;48.094;7.970;2024-01-07T10:22:02;5.70;1.00
2409;DHT22;8463;48.094;7.970;2024-01-07T10:24:39;5.80;1.00
2409;DHT22;8463;48.094;7.970;2024-01-07T10:27:06;5.70;1.00
2409;DHT22;8463;48.094;7.970;2024-01-07T10:29:32;5.70;1.00
2409;DHT22;8463;48.094;7.970;2024-01-07T10:31:59;5.80;1.00
2409;DHT22;8463;48.094;7.970;2024-01-07T10:34:32;5.70;1.00
2409;DHT22;8463;48.094;7.970;2024-01-07T10:36:59;5.80;1.00
2409;DHT22;8463;48.094;7.970;2024-01-07T10:39:26;5.80;1.00
2409;DHT22;8463;48.094;7.970;2024-01-07T10:41:55;5.80;1.00
2409;DHT22;8463;48.094;7.970;2024-01-07T10:44:29;5.80;1.00
2409;DHT22;8463;48.094;7.970;2024-01-07T10:46:56;5.80;1.00
2409;DHT22;8463;48.094;7.970;2024-01-07T10:49:26;5.70;1.00
2409;DHT22;8463;48.094;7.970;2024-01-07T10:52:08;5.80;1.00
2409;DHT22;8463;48.094;7.970;2024-01-07T10:54:35;5.80;1.00
2409;DHT22;8463;48.094;7.970;2024-01-07T10:57:13;5.90;1.00
2409;DHT22;8463;48.094;7.970;2024-01-07T10:59:42;5.90;1.00
2409;DHT22;8463;48.094;7.970;2024-01-07T11:02:10;5.90;1.00
2409;DHT22;8463;48.094;7.970;2024-01-07T11:07:40;5.90;1.00
2409;DHT22;8463;48.094;7.970;2024-01-07T11:10:16;5.80;1.00
2409;DHT22;8463;48.094;7.970;2024-01-07T11:12:43;5.90;1.00
2409;DHT22;8463;48.094;7.970;2024-01-07T11:15:09;5.80;1.00
2409;DHT22;8463;48.094;7.970;2024-01-07T11:20:07;5.80;1.00
2409;DHT22;8463;48.094;7.970;2024-01-07T11:22:37;5.90;1.00
2409;DHT22;8463;48.094;7.970;2024-01-07T11:25:32;5.90;1.00
2409;DHT22;8463;48.094;7.970;2024-01-07T11:28:00;5.90;1.00
2409;DHT22;8463;48.094;7.970;2024-01-07T11:30:26;6.00;1.00
2409;DHT22;8463;48.094;7.970;2024-01-07T11:33:01;6.10;1.00
2409;DHT22;8463;48.094;7.970;2024-01-07T11:35:59;6.10;1.00
2409;DHT22;8463;48.094;7.970;2024-01-07T11:38:25;6.20;1.00
2409;DHT22;8463;48.094;7.970;2024-01-07T11:40:51;6.20;1.00
2409;DHT22;8463;48.094;7.970;2024-01-07T11:43:17;6.30;1.00
2409;DHT22;8463;48.094;7.970;2024-01-07T11:45:44;6.20;1.00
2409;DHT22;8463;48.094;7.970;2024-01-07T11:48:10;6.20;1.00
2409;DHT22;8463;48.094;7.970;2024-01-07T11:50:35;6.10;1.00
2409;DHT22;8463;48.094;7.970;2024-01-07T11:53:03;6.10;1.00
2409;DHT22;8463;48.094;7.970;2024-01-07T11:55:29;6.10;1.00
2409;DHT22;8463;48.094;7.970;2024-01-07T11:58:00;6.20;1.00
2409;DHT22;8463;48.094;7.970;2024-01-07T12:00:26;6.20;1.00
2409;DHT22;8463;48.094;7.970;2024-01-07T12:02:51;6.30;1.00
2409;DHT22;8463;48.094;7.970;2024-01-07T12:05:17;6.20;1.00
2409;DHT22;8463;48.094;7.970;2024-01-07T12:07:43;6.20;1.00
2409;DHT22;8463;48.094;7.970;2024-01-07T12:10:08;6.20;1.00
2409;DHT22;8463;48.094;7.970;2024-01-07T12:12:41;6.30;1.00
2409;DHT22;8463;48.094;7.970;2024-01-07T12:15:10;6.10;1.00
2409;DHT22;8463;48.094;7.970;2024-01-07T12:17:39;6.10;1.00
2409;DHT22;8463;48.094;7.970;2024-01-07T12:20:05;6.10;1.00
2409;DHT22;8463;48.094;7.970;2024-01-07T12:22:33;5.90;1.00
2409;DHT22;8463;48.094;7.970;2024-01-07T12:25:06;5.80;1.00
2409;DHT22;8463;48.094;7.970;2024-01-07T12:27:34;5.90;1.00
2409;DHT22;8463;48.094;7.970;2024-01-07T12:30:04;5.90;1.00
2409;DHT22;8463;48.094;7.970;2024-01-07T12:32:33;5.80;1.00
2409;DHT22;8463;48.094;7.970;2024-01-07T12:35:02;5.80;1.00
2409;DHT22;8463;48.094;7.970;2024-01-07T12:37:28;5.80;1.00
2409;DHT22;8463;48.094;7.970;2024-01-07T12:39:54;5.70;1.00
2409;DHT22;8463;48.094;7.970;2024-01-07T12:42:19;5.70;1.00
2409;DHT22;8463;48.094;7.970;2024-01-07T12:44:48;5.70;1.00
2409;DHT22;8463;48.094;7.970;2024-01-07T12:47:14;5.70;1.00
2409;DHT22;8463;48.094;7.970;2024-01-07T12:49:40;5.70;1.00
2409;DHT22;8463;48.094;7.970;2024-01-07T12:52:05;5.70;1.00
2409;DHT22;8463;48.094;7.970;2024-01-07T12:54:31;5.70;1.00
2409;DHT22;8463;48.094;7.970;2024-01-07T12:56:59;5.70;1.00
2409;DHT22;8463;48.094;7.970;2024-01-07T12:59:26;5.80;1.00
2409;DHT22;8463;48.094;7.970;2024-01-07T13:01:51;5.80;1.00
2409;DHT22;8463;48.094;7.970;2024-01-07T13:04:17;5.80;1.00
2409;DHT22;8463;48.094;7.970;2024-01-07T13:06:44;5.80;1.00
2409;DHT22;8463;48.094;7.970;2024-01-07T13:09:10;5.80;1.00
2409;DHT22;8463;48.094;7.970;2024-01-07T13:11:36;5.70;1.00
2409;DHT22;8463;48.094;7.970;2024-01-07T13:14:02;5.70;1.00
2409;DHT22;8463;48.094;7.970;2024-01-07T13:16:28;5.70;1.00
2409;DHT22;8463;48.094;7.970;2024-01-07T13:18:56;5.70;1.00
2409;DHT22;8463;48.094;7.970;2024-01-07T13:21:21;5.70;1.00
2409;DHT22;8463;48.094;7.970;2024-01-07T13:23:47;5.50;1.00
2409;DHT22;8463;48.094;7.970;2024-01-07T13:26:14;5.50;1.00
2409;DHT22;8463;48.094;7.970;2024-01-07T13:28:39;5.50;1.00
2409;DHT22;8463;48.094;7.970;2024-01-07T13:31:08;5.50;1.00
2409;DHT22;8463;48.094;7.970;2024-01-07T13:33:35;5.60;1.00
2409;DHT22;8463;48.094;7.970;2024-01-07T13:36:00;5.60;1.00
2409;DHT22;8463;48.094;7.970;2024-01-07T13:38:28;5.60;1.00
2409;DHT22;8463;48.094;7.970;2024-01-07T13:40:54;5.60;1.00
2409;DHT22;8463;48.094;7.970;2024-01-07T13:43:20;5.60;1.00
2409;DHT22;8463;48.094;7.970;2024-01-07T13:45:45;5.60;1.00
2409;DHT22;8463;48.094;7.970;2024-01-07T13:48:11;5.60;1.00
2409;DHT22;8463;48.094;7.970;2024-01-07T13:50:37;5.60;1.00
2409;DHT22;8463;48.094;7.970;2024-01-07T13:53:02;5.60;1.00
2409;DHT22;8463;48.094;7.970;2024-01-07T13:55:28;5.60;1.00
2409;DHT22;8463;48.094;7.970;2024-01-07T13:57:54;5.50;1.00
2409;DHT22;8463;48.094;7.970;2024-01-07T14:00:20;5.50;1.00
2409;DHT22;8463;48.094;7.970;2024-01-07T14:02:46;5.40;1.00
2409;DHT22;8463;48.094;7.970;2024-01-07T14:05:11;5.50;1.00
2409;DHT22;8463;48.094;7.970;2024-01-07T14:07:39;5.40;1.00
2409;DHT22;8463;48.094;7.970;2024-01-07T14:10:06;5.40;1.00
2409;DHT22;8463;48.094;7.970;2024-01-07T14:12:32;5.20;1.00
2409;DHT22;8463;48.094;7.970;2024-01-07T14:14:58;5.20;1.00
2409;DHT22;8463;48.094;7.970;2024-01-07T14:17:27;5.20;1.00
2409;DHT22;8463;48.094;7.970;2024-01-07T14:19:53;5.10;1.00
2409;DHT22;8463;48.094;7.970;2024-01-07T14:22:20;5.10;1.00
2409;DHT22;8463;48.094;7.970;2024-01-07T14:24:49;5.10;1.00
2409;DHT22;8463;48.094;7.970;2024-01-07T14:27:16;5.20;1.00
2409;DHT22;8463;48.094;7.970;2024-01-07T14:29:42;5.10;1.00
2409;DHT22;8463;48.094;7.970;2024-01-07T14:32:08;5.10;1.00
2409;DHT22;8463;48.094;7.970;2024-01-07T14:34:38;4.90;1.00
2409;DHT22;8463;48.094;7.970;2024-01-07T14:37:04;4.90;1.00
2409;DHT22;8463;48.094;7.970;2024-01-07T14:39:30;5.00;1.00
2409;DHT22;8463;48.094;7.970;2024-01-07T14:41:56;4.90;1.00
2409;DHT22;8463;48.094;7.970;2024-01-07T14:44:21;5.00;1.00
2409;DHT22;8463;48.094;7.970;2024-01-07T14:46:47;4.90;1.00
2409;DHT22;8463;48.094;7.970;2024-01-07T14:49:13;4.80;1.00
2409;DHT22;8463;48.094;7.970;2024-01-07T14:51:39;4.70;1.00
2409;DHT22;8463;48.094;7.970;2024-01-07T14:54:04;4.60;1.00
2409;DHT22;8463;48.094;7.970;2024-01-07T14:56:30;4.50;1.00
2409;DHT22;8463;48.094;7.970;2024-01-07T14:58:56;4.40;1.00
2409;DHT22;8463;48.094;7.970;2024-01-07T15:01:21;4.30;1.00
2409;DHT22;8463;48.094;7.970;2024-01-07T15:03:47;4.30;1.00
2409;DHT22;8463;48.094;7.970;2024-01-07T15:06:13;4.30;1.00
2409;DHT22;8463;48.094;7.970;2024-01-07T15:08:41;4.30;1.00
2409;DHT22;8463;48.094;7.970;2024-01-07T15:11:07;4.30;1.00
2409;DHT22;8463;48.094;7.970;2024-01-07T15:13:33;4.40;1.00
2409;DHT22;8463;48.094;7.970;2024-01-07T15:16:00;4.40;1.00
2409;DHT22;8463;48.094;7.970;2024-01-07T15:18:25;4.40;1.00
2409;DHT22;8463;48.094;7.970;2024-01-07T15:20:51;4.40;1.00
2409;DHT22;8463;48.094;7.970;2024-01-07T15:23:17;4.40;1.00
2409;DHT22;8463;48.094;7.970;2024-01-07T15:25:43;4.40;1.00
2409;DHT22;8463;48.094;7.970;2024-01-07T15:28:08;4.30;1.00
2409;DHT22;8463;48.094;7.970;2024-01-07T15:30:34;4.30;1.00
2409;DHT22;8463;48.094;7.970;2024-01-07T15:33:00;4.30;1.00
2409;DHT22;8463;48.094;7.970;2024-01-07T15:35:28;4.10;1.00
2409;DHT22;8463;48.094;7.970;2024-01-07T15:37:54;4.10;1.00
2409;DHT22;8463;48.094;7.970;2024-01-07T15:40:21;4.10;1.00
2409;DHT22;8463;48.094;7.970;2024-01-07T15:42:47;4.00;1.00
2409;DHT22;8463;48.094;7.970;2024-01-07T15:45:13;4.00;1.00
2409;DHT22;8463;48.094;7.970;2024-01-07T15:47:38;3.90;1.00
2409;DHT22;8463;48.094;7.970;2024-01-07T15:50:05;3.90;1.00
2409;DHT22;8463;48.094;7.970;2024-01-07T15:52:31;3.80;1.00
2409;DHT22;8463;48.094;7.970;2024-01-07T15:54:57;3.80;1.00
2409;DHT22;8463;48.094;7.970;2024-01-07T15:57:25;3.80;1.00
2409;DHT22;8463;48.094;7.970;2024-01-07T15:59:51;3.70;1.00
2409;DHT22;8463;48.094;7.970;2024-01-07T16:02:16;3.60;1.00
2409;DHT22;8463;48.094;7.970;2024-01-07T16:04:42;3.60;1.00
2409;DHT22;8463;48.094;7.970;2024-01-07T16:07:08;3.60;1.00
2409;DHT22;8463;48.094;7.970;2024-01-07T16:09:33;3.60;1.00
2409;DHT22;8463;48.094;7.970;2024-01-07T16:12:02;3.60;1.00
2409;DHT22;8463;48.094;7.970;2024-01-07T16:14:32;3.60;1.00
2409;DHT22;8463;48.094;7.970;2024-01-07T16:17:00;3.70;1.00
2409;DHT22;8463;48.094;7.970;2024-01-07T16:19:27;3.70;1.00
2409;DHT22;8463;48.094;7.970;2024-01-07T16:21:54;3.70;1.00
2409;DHT22;8463;48.094;7.970;2024-01-07T16:24:19;3.70;1.00
2409;DHT22;8463;48.094;7.970;2024-01-07T16:26:45;3.70;1.00
2409;DHT22;8463;48.094;7.970;2024-01-07T16:29:11;3.70;1.00
2409;DHT22;8463;48.094;7.970;2024-01-07T16:31:37;3.70;1.00
2409;DHT22;8463;48.094;7.970;2024-01-07T16:34:03;3.70;1.00